createdAt,value
2019-05-12T00:00:41.167Z,3.50
2019-05-12T00:03:10.487Z,3.80
2019-05-12T00:05:39.788Z,3.70
2019-05-12T00:08:09.088Z,3.85
2019-05-12T00:10:38.821Z,3.87
2019-05-12T00:13:08.633Z,3.43
2019-05-12T00:15:38.600Z,3.75
2019-05-12T00:18:09.085Z,4.30
2019-05-12T00:20:38.857Z,4.00
2019-05-12T00:23:23.257Z,3.87
2019-05-12T00:25:39.222Z,3.67
2019-05-12T00:28:08.596Z,4.12
2019-05-12T00:30:45.710Z,3.40
2019-05-12T00:33:15.385Z,4.15
2019-05-12T00:35:44.755Z,4.05
2019-05-12T00:38:14.062Z,3.75
2019-05-12T00:40:43.347Z,4.42
2019-05-12T00:43:12.628Z,3.83
2019-05-12T00:45:41.945Z,4.60
2019-05-12T00:48:11.231Z,3.60
2019-05-12T00:50:40.536Z,4.30
2019-05-12T00:53:10.801Z,4.37
2019-05-12T00:55:40.147Z,3.67
2019-05-12T00:58:09.490Z,3.87
2019-05-12T01:00:41.047Z,4.12
2019-05-12T01:03:10.808Z,3.87
2019-05-12T01:05:40.111Z,4.35
2019-05-12T01:08:09.763Z,4.50
2019-05-12T01:10:39.447Z,3.80
2019-05-12T01:13:09.129Z,4.78
2019-05-12T01:15:38.641Z,4.00
2019-05-12T01:18:09.279Z,3.67
2019-05-12T01:20:39.394Z,4.80
2019-05-12T01:23:09.053Z,4.33
2019-05-12T01:25:39.411Z,4.17
2019-05-12T01:28:09.317Z,3.87
2019-05-12T01:30:39.277Z,3.98
2019-05-12T01:33:09.102Z,3.90
2019-05-12T01:35:39.203Z,4.37
2019-05-12T01:38:08.746Z,4.43
2019-05-12T01:40:39.370Z,4.00
2019-05-12T01:45:38.438Z,4.03
2019-05-12T01:48:09.000Z,4.20
2019-05-12T01:50:39.097Z,3.80
2019-05-12T01:53:08.751Z,4.28
2019-05-12T01:55:39.089Z,3.90
2019-05-12T01:58:08.914Z,3.63
2019-05-12T02:00:39.013Z,4.00
2019-05-12T02:03:09.467Z,4.12
2019-05-12T02:05:40.688Z,3.87
2019-05-12T02:08:11.799Z,3.95
2019-05-12T02:10:42.380Z,4.35
2019-05-12T02:13:11.713Z,4.30
2019-05-12T02:15:41.381Z,3.98
2019-05-12T02:20:40.115Z,4.42
2019-05-12T02:23:09.418Z,4.15
2019-05-12T02:25:38.719Z,4.65
2019-05-12T02:28:28.626Z,4.60
2019-05-12T02:30:58.947Z,4.62
2019-05-12T02:35:56.972Z,4.28
2019-05-12T02:38:26.307Z,4.47
2019-05-12T02:40:55.831Z,4.28
2019-05-12T02:43:25.111Z,3.98
2019-05-12T02:45:54.884Z,4.22
2019-05-12T02:48:24.673Z,4.40
2019-05-12T02:50:54.585Z,4.85
2019-05-12T02:53:24.938Z,4.00
2019-05-12T02:55:55.432Z,4.30
2019-05-12T02:58:26.763Z,4.80
2019-05-12T03:03:29.015Z,5.12
2019-05-12T03:06:00.373Z,4.33
2019-05-12T03:08:34.944Z,4.58
2019-05-12T03:11:06.123Z,4.78
2019-05-12T03:16:04.836Z,5.17
2019-05-12T03:18:35.160Z,4.92
2019-05-12T03:21:05.669Z,4.65
2019-05-12T03:23:35.486Z,4.35
2019-05-12T03:26:05.401Z,4.83
2019-05-12T03:28:35.784Z,5.03
2019-05-12T03:31:07.681Z,4.53
2019-05-12T03:33:43.376Z,5.15
2019-05-12T03:36:09.872Z,5.05
2019-05-12T03:38:38.901Z,4.53
2019-05-12T03:41:08.221Z,5.10
2019-05-12T03:43:39.919Z,3.30
2019-05-12T03:48:37.725Z,4.58
2019-05-12T03:51:08.007Z,5.23
2019-05-12T03:53:37.324Z,4.97
2019-05-12T03:56:06.625Z,5.22
2019-05-12T03:58:35.951Z,5.35
2019-05-12T04:01:05.943Z,6.17
2019-05-12T04:03:35.261Z,5.05
2019-05-12T04:06:04.972Z,5.40
2019-05-12T04:08:34.818Z,5.85
2019-05-12T04:11:05.490Z,5.05
2019-05-12T04:13:34.935Z,5.07
2019-05-12T04:16:05.049Z,4.92
2019-05-12T04:18:35.113Z,4.60
2019-05-12T04:21:05.567Z,5.57
2019-05-12T04:23:35.103Z,5.80
2019-05-12T04:26:10.914Z,5.22
2019-05-12T04:28:35.510Z,6.20
2019-05-12T04:31:05.600Z,5.65
2019-05-12T04:33:35.074Z,5.43
2019-05-12T04:36:05.623Z,5.30
2019-05-12T04:38:35.631Z,6.17
2019-05-12T04:41:06.099Z,5.35
2019-05-12T04:43:35.545Z,5.40
2019-05-12T04:46:05.263Z,5.45
2019-05-12T04:48:35.982Z,5.17
2019-05-12T04:51:05.578Z,5.28
2019-05-12T04:53:36.011Z,5.60
2019-05-12T04:56:14.695Z,5.50
2019-05-12T04:58:36.633Z,5.62
2019-05-12T05:01:06.656Z,5.83
2019-05-12T05:03:36.127Z,6.87
2019-05-12T05:06:05.495Z,5.83
2019-05-12T05:08:35.049Z,5.50
2019-05-12T05:11:05.448Z,5.80
2019-05-12T05:13:38.828Z,5.92
2019-05-12T05:16:05.788Z,5.83
2019-05-12T05:18:35.157Z,4.92
2019-05-12T05:21:04.793Z,6.40
2019-05-12T05:23:34.315Z,11.12
2019-05-12T05:26:03.674Z,10.53
2019-05-12T05:28:34.012Z,9.35
2019-05-12T05:31:03.697Z,7.45
2019-05-12T05:33:34.027Z,6.17
2019-05-12T05:36:03.640Z,6.17
2019-05-12T05:38:34.272Z,5.12
2019-05-12T05:41:05.936Z,5.15
2019-05-12T05:46:07.777Z,4.92
2019-05-12T05:48:35.166Z,5.25
2019-05-12T05:51:08.815Z,5.60
2019-05-12T05:53:35.737Z,5.53
2019-05-12T05:56:05.046Z,5.00
2019-05-12T05:58:34.331Z,5.25
2019-05-12T06:01:08.057Z,4.70
2019-05-12T06:03:35.623Z,4.40
2019-05-12T06:06:10.835Z,4.42
2019-05-12T06:08:35.905Z,4.33
2019-05-12T06:11:08.466Z,4.70
2019-05-12T06:13:36.224Z,4.30
2019-05-12T06:16:05.512Z,4.50
2019-05-12T06:18:34.826Z,4.62
2019-05-12T06:21:04.118Z,4.00
2019-05-12T06:23:37.085Z,3.87
2019-05-12T06:26:04.857Z,3.80
2019-05-12T06:28:39.354Z,3.80
2019-05-12T06:31:06.359Z,3.40
2019-05-12T06:33:36.434Z,3.00
2019-05-12T06:36:13.786Z,4.30
2019-05-12T06:38:40.623Z,3.58
2019-05-12T06:41:14.262Z,3.90
2019-05-12T06:43:44.708Z,3.60
2019-05-12T06:46:19.998Z,2.98
2019-05-12T06:48:45.387Z,2.95
2019-05-12T06:51:19.393Z,2.90
2019-05-12T06:53:45.089Z,3.35
2019-05-12T06:56:19.464Z,3.08
2019-05-12T06:58:45.640Z,3.08
2019-05-12T07:01:19.392Z,3.15
2019-05-12T07:03:45.963Z,2.80
2019-05-12T07:06:19.724Z,2.60
2019-05-12T07:08:46.299Z,2.65
2019-05-12T07:11:15.700Z,2.77
2019-05-12T07:13:44.993Z,3.40
2019-05-12T07:16:21.821Z,3.15
2019-05-12T07:18:47.306Z,3.30
2019-05-12T07:21:20.097Z,3.37
2019-05-12T07:23:48.828Z,3.25
2019-05-12T07:26:19.591Z,3.55
2019-05-12T07:31:17.826Z,2.77
2019-05-12T07:33:47.194Z,2.33
2019-05-12T07:36:18.591Z,2.60
2019-05-12T07:38:48.709Z,2.50
2019-05-12T07:43:50.460Z,2.55
2019-05-12T07:48:50.831Z,1.95
2019-05-12T07:51:19.801Z,2.45
2019-05-12T07:53:55.375Z,2.37
2019-05-12T07:58:54.294Z,1.75
2019-05-12T08:01:23.481Z,2.10
2019-05-12T08:03:57.183Z,1.90
2019-05-12T08:06:24.425Z,1.47
2019-05-12T08:08:58.720Z,1.97
2019-05-12T08:11:28.684Z,1.70
2019-05-12T08:13:55.875Z,1.70
2019-05-12T08:16:30.268Z,1.60
2019-05-12T08:21:24.648Z,1.70
2019-05-12T08:23:53.935Z,1.90
2019-05-12T08:26:23.938Z,1.85
2019-05-12T08:28:53.651Z,1.85
2019-05-12T08:31:32.038Z,2.22
2019-05-12T08:33:54.015Z,2.15
2019-05-12T08:36:23.586Z,1.60
2019-05-12T08:38:53.657Z,1.75
2019-05-12T08:41:23.512Z,1.50
2019-05-12T08:43:57.498Z,1.75
2019-05-12T08:46:24.463Z,1.60
2019-05-12T08:48:57.849Z,1.73
2019-05-12T08:51:25.121Z,1.50
2019-05-12T08:54:02.496Z,2.08
2019-05-12T08:56:26.234Z,1.72
2019-05-12T08:58:55.836Z,2.00
2019-05-12T09:01:26.593Z,1.80
2019-05-12T09:04:00.303Z,1.82
2019-05-12T09:08:56.052Z,2.12
2019-05-12T09:11:25.359Z,2.27
2019-05-12T09:14:00.679Z,2.25
2019-05-12T09:16:25.668Z,2.25
2019-05-12T09:18:55.449Z,1.90
2019-05-12T09:21:31.568Z,2.33
2019-05-12T09:23:56.149Z,1.98
2019-05-12T09:26:28.455Z,2.00
2019-05-12T09:28:57.516Z,1.72
2019-05-12T09:31:29.453Z,1.80
2019-05-12T09:36:27.295Z,1.90
2019-05-12T09:39:01.629Z,1.57
2019-05-12T09:41:27.643Z,1.72
2019-05-12T09:43:56.963Z,1.72
2019-05-12T09:46:28.246Z,1.60
2019-05-12T09:48:57.517Z,1.77
2019-05-12T09:51:32.857Z,1.87
2019-05-12T09:53:58.562Z,1.50
2019-05-12T09:56:27.868Z,1.40
2019-05-12T09:59:01.536Z,1.50
2019-05-12T10:01:29.370Z,1.77
2019-05-12T10:03:59.218Z,1.30
2019-05-12T10:06:28.494Z,1.37
2019-05-12T10:08:57.796Z,1.40
2019-05-12T10:11:27.091Z,1.65
2019-05-12T10:14:00.333Z,1.50
2019-05-12T10:16:27.383Z,1.75
2019-05-12T10:18:56.700Z,1.60
2019-05-12T10:21:26.011Z,1.47
2019-05-12T10:24:00.199Z,1.52
2019-05-12T10:26:26.322Z,1.52
2019-05-12T10:28:58.402Z,1.35
2019-05-12T10:33:58.448Z,1.40
2019-05-12T10:36:27.730Z,1.50
2019-05-12T10:38:57.031Z,1.98
2019-05-12T10:41:26.344Z,1.55
2019-05-12T10:43:57.759Z,1.37
2019-05-12T10:46:28.584Z,1.22
2019-05-12T10:48:57.715Z,1.20
2019-05-12T10:51:26.995Z,1.42
2019-05-12T10:54:01.996Z,1.92
2019-05-12T10:56:27.323Z,1.20
2019-05-12T10:58:57.440Z,1.22
2019-05-12T11:01:26.763Z,1.62
2019-05-12T11:03:56.086Z,1.45
2019-05-12T11:06:25.373Z,1.40
2019-05-12T11:08:54.699Z,1.40
2019-05-12T11:11:24.155Z,1.40
2019-05-12T11:13:53.854Z,1.40
2019-05-12T11:16:30.747Z,1.50
2019-05-12T11:19:00.154Z,1.40
2019-05-12T11:21:26.358Z,1.60
2019-05-12T11:23:56.700Z,1.67
2019-05-12T11:26:26.006Z,1.37
2019-05-12T11:28:55.336Z,1.40
2019-05-12T11:31:24.637Z,1.57
2019-05-12T11:33:54.201Z,1.60
2019-05-12T11:36:24.157Z,1.50
2019-05-12T11:38:53.906Z,1.80
2019-05-12T11:41:28.251Z,1.72
2019-05-12T11:43:54.204Z,1.20
2019-05-12T11:46:23.931Z,1.37
2019-05-12T11:48:53.833Z,1.40
2019-05-12T11:51:28.895Z,1.53
2019-05-12T11:53:54.828Z,1.43
2019-05-12T11:56:24.387Z,1.30
2019-05-12T11:58:54.323Z,1.52
2019-05-12T12:01:25.349Z,1.12
2019-05-12T12:03:54.818Z,1.05
2019-05-12T12:06:24.255Z,1.20
2019-05-12T12:08:53.816Z,1.30
2019-05-12T12:11:27.598Z,1.40
2019-05-12T12:16:23.737Z,1.00
2019-05-12T12:19:02.274Z,1.15
2019-05-12T12:21:24.175Z,1.10
2019-05-12T12:23:53.608Z,1.07
2019-05-12T12:26:28.245Z,0.80
2019-05-12T12:28:56.036Z,1.20
2019-05-12T12:31:29.632Z,0.90
2019-05-12T12:33:56.326Z,1.00
2019-05-12T12:36:25.639Z,0.80
2019-05-12T12:38:54.935Z,1.10
2019-05-12T12:41:24.239Z,0.90
2019-05-12T12:43:54.169Z,1.02
2019-05-12T12:46:25.286Z,1.10
2019-05-12T12:51:23.713Z,1.15
2019-05-12T12:53:54.106Z,1.20
2019-05-12T12:56:28.604Z,0.93
2019-05-12T12:58:55.444Z,1.05
2019-05-12T13:01:28.587Z,0.90
2019-05-12T13:03:59.439Z,1.10
2019-05-12T13:06:26.904Z,0.82
2019-05-12T13:08:56.190Z,0.90
2019-05-12T13:11:33.084Z,0.90
2019-05-12T13:13:56.512Z,0.90
2019-05-12T13:16:25.837Z,1.07
2019-05-12T13:18:55.152Z,1.07
2019-05-12T13:21:25.446Z,0.97
2019-05-12T13:23:54.759Z,1.00
2019-05-12T13:26:24.075Z,0.95
2019-05-12T13:28:55.054Z,1.10
2019-05-12T13:31:24.623Z,0.90
2019-05-12T13:33:54.943Z,1.00
2019-05-12T13:36:29.489Z,0.98
2019-05-12T13:38:55.941Z,0.90
2019-05-12T13:41:25.285Z,1.00
2019-05-12T13:43:59.092Z,0.88
2019-05-12T13:46:25.604Z,1.15
2019-05-12T13:48:58.460Z,1.20
2019-05-12T13:51:25.913Z,0.95
2019-05-12T13:53:55.525Z,0.90
2019-05-12T13:56:32.353Z,1.20
2019-05-12T14:01:24.867Z,0.93
2019-05-12T14:03:54.461Z,1.00
2019-05-12T14:06:31.838Z,1.30
2019-05-12T14:08:54.762Z,1.27
2019-05-12T14:11:25.049Z,1.10
2019-05-12T14:13:54.360Z,0.72
2019-05-12T14:16:24.634Z,1.00
2019-05-12T14:18:57.024Z,1.40
2019-05-12T14:21:24.936Z,1.12
2019-05-12T14:23:54.320Z,0.90
2019-05-12T14:26:24.259Z,1.10
2019-05-12T14:28:53.604Z,0.90
2019-05-12T14:31:27.458Z,1.22
2019-05-12T14:33:54.063Z,1.15
2019-05-12T14:36:26.707Z,0.78
2019-05-12T14:38:54.423Z,1.02
2019-05-12T14:41:26.537Z,1.00
2019-05-12T14:44:01.769Z,1.00
2019-05-12T14:46:26.779Z,1.10
2019-05-12T14:48:56.083Z,1.20
2019-05-12T14:51:25.386Z,1.10
2019-05-12T14:53:54.689Z,0.90
2019-05-12T14:56:23.988Z,1.02
2019-05-12T14:58:56.607Z,1.20
2019-05-12T15:01:37.502Z,1.22
2019-05-12T15:03:55.527Z,1.10
2019-05-12T15:06:29.272Z,1.07
2019-05-12T15:08:55.865Z,1.00
2019-05-12T15:11:25.323Z,1.00
2019-05-12T15:13:54.613Z,1.30
2019-05-12T15:16:24.585Z,1.67
2019-05-12T15:18:54.799Z,1.10
2019-05-12T15:21:27.334Z,2.53
2019-05-12T15:23:56.063Z,1.10
2019-05-12T15:26:25.365Z,1.30
2019-05-12T15:28:55.614Z,1.30
2019-05-12T15:31:25.625Z,1.20
2019-05-12T15:33:55.854Z,1.10
2019-05-12T15:36:25.898Z,1.30
2019-05-12T15:38:58.919Z,1.02
2019-05-12T15:41:27.119Z,1.00
2019-05-12T15:43:56.827Z,1.10
2019-05-12T15:46:26.632Z,1.10
2019-05-12T15:48:56.848Z,1.10
2019-05-12T15:51:26.907Z,1.02
2019-05-12T15:54:05.462Z,1.00
2019-05-12T15:56:28.134Z,1.02
2019-05-12T15:59:01.147Z,1.32
2019-05-12T16:01:28.421Z,1.20
2019-05-12T16:03:57.830Z,0.93
2019-05-12T16:06:28.304Z,1.05
2019-05-12T16:08:58.103Z,0.96
2019-05-12T16:11:28.057Z,1.00
2019-05-12T16:13:59.484Z,1.00
2019-05-12T16:18:57.404Z,1.30
2019-05-12T16:21:26.724Z,1.30
2019-05-12T16:23:56.674Z,1.20
2019-05-12T16:26:26.255Z,1.30
2019-05-12T16:29:02.426Z,1.22
2019-05-12T16:31:27.356Z,1.33
2019-05-12T16:34:01.243Z,1.10
2019-05-12T16:36:27.659Z,1.00
2019-05-12T16:39:00.208Z,1.20
2019-05-12T16:41:29.876Z,1.20
2019-05-12T16:44:00.410Z,1.20
2019-05-12T16:46:30.076Z,1.10
2019-05-12T16:49:00.284Z,1.10
2019-05-12T16:51:30.611Z,1.10
2019-05-12T16:54:00.563Z,1.25
2019-05-12T16:56:30.912Z,1.50
2019-05-12T16:59:00.853Z,1.30
2019-05-12T17:01:30.936Z,1.45
2019-05-12T17:04:01.327Z,1.57
2019-05-12T17:06:34.992Z,1.62
2019-05-12T17:09:03.402Z,1.62
2019-05-12T17:11:37.445Z,1.62
2019-05-12T17:14:05.047Z,1.32
2019-05-12T17:16:41.811Z,1.60
2019-05-12T17:19:10.372Z,1.75
2019-05-12T17:21:37.779Z,1.92
2019-05-12T17:24:07.079Z,1.80
2019-05-12T17:26:36.401Z,1.42
2019-05-12T17:29:05.700Z,1.85
2019-05-12T17:31:35.013Z,2.20
2019-05-12T17:34:06.639Z,2.47
2019-05-12T17:36:35.469Z,1.75
2019-05-12T17:39:07.039Z,1.40
2019-05-12T17:41:40.986Z,1.60
2019-05-12T17:44:07.468Z,2.00
2019-05-12T17:46:37.887Z,1.62
2019-05-12T17:49:07.871Z,2.02
2019-05-12T17:51:37.227Z,1.20
2019-05-12T17:54:07.215Z,1.30
2019-05-12T17:56:38.822Z,1.70
2019-05-12T17:59:08.336Z,1.52
2019-05-12T18:01:39.305Z,1.57
2019-05-12T18:04:08.669Z,1.57
2019-05-12T18:06:38.041Z,1.40
2019-05-12T18:09:09.161Z,1.40
2019-05-12T18:11:39.125Z,1.30
2019-05-12T18:14:09.565Z,1.22
2019-05-12T18:16:38.863Z,1.10
2019-05-12T18:19:08.956Z,1.27
2019-05-12T18:24:11.015Z,1.10
2019-05-12T18:26:38.720Z,1.75
2019-05-12T18:29:09.324Z,1.60
2019-05-12T18:31:38.723Z,1.27
2019-05-12T18:34:08.056Z,1.20
2019-05-12T18:36:37.385Z,1.55
2019-05-12T18:39:11.645Z,1.35
2019-05-12T18:41:38.945Z,1.57
2019-05-12T18:44:08.314Z,1.40
2019-05-12T18:46:44.896Z,1.40
2019-05-12T18:49:12.255Z,1.40
2019-05-12T18:51:39.710Z,1.37
2019-05-12T18:54:10.599Z,1.32
2019-05-12T18:56:40.119Z,1.20
2019-05-12T18:59:11.798Z,1.40
2019-05-12T19:01:40.600Z,1.37
2019-05-12T19:04:09.925Z,1.32
2019-05-12T19:06:39.298Z,1.60
2019-05-12T19:09:09.296Z,1.57
2019-05-12T19:11:42.150Z,1.22
2019-05-12T19:14:09.919Z,1.52
2019-05-12T19:16:39.375Z,1.25
2019-05-12T19:19:09.624Z,1.30
2019-05-12T19:21:40.393Z,1.50
2019-05-12T19:24:15.301Z,1.22
2019-05-12T19:26:40.753Z,1.47
2019-05-12T19:29:10.103Z,1.20
2019-05-12T19:31:43.574Z,1.40
2019-05-12T19:34:19.982Z,1.30
2019-05-12T19:36:48.130Z,1.40
2019-05-12T19:39:13.212Z,1.30
2019-05-12T19:41:43.626Z,1.52
2019-05-12T19:44:13.583Z,1.42
2019-05-12T19:46:45.880Z,1.30
2019-05-12T19:49:15.217Z,1.32
2019-05-12T19:51:44.515Z,1.87
2019-05-12T19:54:14.089Z,1.60
2019-05-12T19:56:43.585Z,1.80
2019-05-12T19:59:14.656Z,1.30
2019-05-12T20:01:45.019Z,1.45
2019-05-12T20:04:29.720Z,1.82
2019-05-12T20:06:45.343Z,1.57
2019-05-12T20:09:14.872Z,1.57
2019-05-12T20:11:44.216Z,1.22
2019-05-12T20:14:19.109Z,1.50
2019-05-12T20:16:44.543Z,1.70
2019-05-12T20:19:13.859Z,1.60
2019-05-12T20:21:43.799Z,1.55
2019-05-12T20:24:14.533Z,1.40
2019-05-12T20:26:44.539Z,1.55
2019-05-12T20:29:13.972Z,1.60
2019-05-12T20:31:48.554Z,1.50
2019-05-12T20:34:14.962Z,1.70
2019-05-12T20:36:44.516Z,1.57
2019-05-12T20:39:16.949Z,1.56
2019-05-12T20:41:46.518Z,1.50
2019-05-12T20:44:19.608Z,1.47
2019-05-12T20:46:46.812Z,1.70
2019-05-12T20:49:16.377Z,1.20
2019-05-12T20:51:48.200Z,1.75
2019-05-12T20:54:18.178Z,2.17
2019-05-12T20:59:22.027Z,2.05
2019-05-12T21:01:47.050Z,2.22
2019-05-12T21:04:16.409Z,1.90
2019-05-12T21:06:48.526Z,1.80
2019-05-12T21:09:17.983Z,2.20
2019-05-12T21:11:47.275Z,1.90
2019-05-12T21:14:16.605Z,2.30
2019-05-12T21:16:45.902Z,1.90
2019-05-12T21:19:15.231Z,2.20
2019-05-12T21:21:44.599Z,2.80
2019-05-12T21:24:14.165Z,2.40
2019-05-12T21:26:44.087Z,2.70
2019-05-12T21:29:13.901Z,2.30
2019-05-12T21:31:44.606Z,2.45
2019-05-12T21:34:21.209Z,2.87
2019-05-12T21:36:45.140Z,3.58
2019-05-12T21:39:14.456Z,3.02
2019-05-12T21:41:50.517Z,3.05
2019-05-12T21:44:14.802Z,2.67
2019-05-12T21:46:57.255Z,3.05
2019-05-12T21:51:45.160Z,2.95
2019-05-12T21:54:14.468Z,2.65
2019-05-12T21:56:48.864Z,3.08
2019-05-12T21:59:15.606Z,2.83
2019-05-12T22:01:45.932Z,2.67
2019-05-12T22:04:15.551Z,3.37
2019-05-12T22:06:44.944Z,2.60
2019-05-12T22:09:17.279Z,3.47
2019-05-12T22:11:51.059Z,2.67
2019-05-12T22:14:16.271Z,2.37
2019-05-12T22:16:47.232Z,2.35
2019-05-12T22:19:16.555Z,2.35
2019-05-12T22:21:49.344Z,2.08
2019-05-12T22:24:17.839Z,2.27
2019-05-12T22:26:47.460Z,2.33
2019-05-12T22:29:21.102Z,2.70
2019-05-12T22:31:48.259Z,2.22
2019-05-12T22:34:17.729Z,2.33
2019-05-12T22:36:55.239Z,2.20
2019-05-12T22:39:18.049Z,2.37
2019-05-12T22:41:47.349Z,2.77
2019-05-12T22:44:20.835Z,2.77
2019-05-12T22:49:20.875Z,2.75
2019-05-12T22:51:47.156Z,2.72
2019-05-12T22:54:16.462Z,3.08
2019-05-12T22:56:49.737Z,3.00
2019-05-12T22:59:16.796Z,2.83
2019-05-12T23:01:46.843Z,2.60
2019-05-12T23:04:16.313Z,2.50
2019-05-12T23:06:46.802Z,3.17
2019-05-12T23:09:19.375Z,2.62
2019-05-12T23:11:47.387Z,2.80
2019-05-12T23:14:20.482Z,3.17
2019-05-12T23:16:47.694Z,2.40
2019-05-12T23:19:17.014Z,2.42
2019-05-12T23:21:49.466Z,2.55
2019-05-12T23:24:17.335Z,2.17
2019-05-12T23:26:47.983Z,2.15
2019-05-12T23:29:20.369Z,2.62
2019-05-12T23:31:48.638Z,2.10
2019-05-12T23:34:17.940Z,2.40
2019-05-12T23:36:50.444Z,2.27
2019-05-12T23:39:18.315Z,2.25
2019-05-12T23:41:47.645Z,1.82
2019-05-12T23:44:16.947Z,2.72
2019-05-12T23:46:46.263Z,2.05
2019-05-12T23:49:15.578Z,1.57
2019-05-12T23:51:44.878Z,2.45
2019-05-12T23:54:14.497Z,2.45
2019-05-12T23:56:44.521Z,1.87
2019-05-12T23:59:14.052Z,2.20
